sensor_id;sensor_type;location;lat;lon;timestamp;P1;durP1;ratioP1;P2;durP2;ratioP2
44670;SDS011;48397;53.016;-2.260;2023-05-23T00:01:08;17.08;;;5.35;;
44670;SDS011;48397;53.016;-2.260;2023-05-23T00:03:37;18.52;;;4.82;;
44670;SDS011;48397;53.016;-2.260;2023-05-23T00:06:06;12.80;;;4.63;;
44670;SDS011;48397;53.016;-2.260;2023-05-23T00:08:34;16.67;;;3.97;;
44670;SDS011;48397;53.016;-2.260;2023-05-23T00:11:02;20.17;;;4.97;;
44670;SDS011;48397;53.016;-2.260;2023-05-23T00:13:29;18.52;;;4.65;;
44670;SDS011;48397;53.016;-2.260;2023-05-23T00:16:00;14.32;;;4.57;;
44670;SDS011;48397;53.016;-2.260;2023-05-23T00:18:28;17.70;;;3.95;;
44670;SDS011;48397;53.016;-2.260;2023-05-23T00:20:56;16.25;;;4.60;;
44670;SDS011;48397;53.016;-2.260;2023-05-23T00:23:25;15.35;;;4.50;;
44670;SDS011;48397;53.016;-2.260;2023-05-23T00:25:56;19.13;;;4.57;;
44670;SDS011;48397;53.016;-2.260;2023-05-23T00:28:25;17.23;;;4.00;;
44670;SDS011;48397;53.016;-2.260;2023-05-23T00:30:56;17.13;;;4.63;;
44670;SDS011;48397;53.016;-2.260;2023-05-23T00:33:24;15.55;;;3.72;;
44670;SDS011;48397;53.016;-2.260;2023-05-23T00:35:53;13.38;;;4.20;;
44670;SDS011;48397;53.016;-2.260;2023-05-23T00:38:20;15.77;;;3.90;;
44670;SDS011;48397;53.016;-2.260;2023-05-23T00:40:48;18.10;;;3.80;;
44670;SDS011;48397;53.016;-2.260;2023-05-23T00:45:45;12.43;;;4.72;;
44670;SDS011;48397;53.016;-2.260;2023-05-23T00:48:14;16.27;;;4.18;;
44670;SDS011;48397;53.016;-2.260;2023-05-23T00:55:41;16.30;;;3.92;;
44670;SDS011;48397;53.016;-2.260;2023-05-23T00:58:10;25.17;;;4.93;;
44670;SDS011;48397;53.016;-2.260;2023-05-23T01:00:42;18.35;;;3.88;;
44670;SDS011;48397;53.016;-2.260;2023-05-23T01:03:11;13.15;;;3.63;;
44670;SDS011;48397;53.016;-2.260;2023-05-23T01:05:44;9.93;;;3.45;;
44670;SDS011;48397;53.016;-2.260;2023-05-23T01:08:12;13.25;;;3.65;;
44670;SDS011;48397;53.016;-2.260;2023-05-23T01:10:42;13.88;;;3.60;;
44670;SDS011;48397;53.016;-2.260;2023-05-23T01:16:13;18.88;;;3.38;;
44670;SDS011;48397;53.016;-2.260;2023-05-23T01:18:57;15.43;;;3.50;;
44670;SDS011;48397;53.016;-2.260;2023-05-23T01:21:33;14.35;;;3.28;;
44670;SDS011;48397;53.016;-2.260;2023-05-23T01:27:12;25.77;;;4.60;;
44670;SDS011;48397;53.016;-2.260;2023-05-23T01:29:53;13.68;;;3.88;;
44670;SDS011;48397;53.016;-2.260;2023-05-23T01:32:27;10.88;;;3.42;;
44670;SDS011;48397;53.016;-2.260;2023-05-23T01:34:57;16.70;;;3.60;;
44670;SDS011;48397;53.016;-2.260;2023-05-23T01:37:26;13.45;;;4.07;;
44670;SDS011;48397;53.016;-2.260;2023-05-23T01:39:55;16.35;;;3.72;;
44670;SDS011;48397;53.016;-2.260;2023-05-23T01:42:24;21.20;;;4.35;;
44670;SDS011;48397;53.016;-2.260;2023-05-23T01:44:54;15.73;;;3.50;;
44670;SDS011;48397;53.016;-2.260;2023-05-23T01:47:25;12.52;;;3.20;;
44670;SDS011;48397;53.016;-2.260;2023-05-23T01:49:54;18.10;;;4.00;;
44670;SDS011;48397;53.016;-2.260;2023-05-23T01:52:24;19.58;;;4.28;;
44670;SDS011;48397;53.016;-2.260;2023-05-23T01:54:54;22.65;;;4.40;;
44670;SDS011;48397;53.016;-2.260;2023-05-23T01:57:23;15.07;;;3.60;;
44670;SDS011;48397;53.016;-2.260;2023-05-23T01:59:52;16.10;;;4.13;;
44670;SDS011;48397;53.016;-2.260;2023-05-23T02:02:20;18.02;;;4.10;;
44670;SDS011;48397;53.016;-2.260;2023-05-23T02:04:48;16.23;;;4.30;;
44670;SDS011;48397;53.016;-2.260;2023-05-23T02:07:18;12.88;;;3.65;;
44670;SDS011;48397;53.016;-2.260;2023-05-23T02:09:49;16.15;;;4.03;;
44670;SDS011;48397;53.016;-2.260;2023-05-23T02:12:16;16.17;;;3.75;;
44670;SDS011;48397;53.016;-2.260;2023-05-23T02:14:44;13.43;;;4.10;;
44670;SDS011;48397;53.016;-2.260;2023-05-23T02:17:13;17.60;;;3.75;;
44670;SDS011;48397;53.016;-2.260;2023-05-23T02:19:43;14.77;;;3.88;;
44670;SDS011;48397;53.016;-2.260;2023-05-23T02:22:11;15.52;;;3.85;;
44670;SDS011;48397;53.016;-2.260;2023-05-23T02:24:40;17.23;;;3.67;;
44670;SDS011;48397;53.016;-2.260;2023-05-23T02:27:08;12.20;;;3.45;;
44670;SDS011;48397;53.016;-2.260;2023-05-23T02:29:36;18.45;;;3.88;;
44670;SDS011;48397;53.016;-2.260;2023-05-23T02:34:31;21.10;;;4.15;;
44670;SDS011;48397;53.016;-2.260;2023-05-23T02:39:27;19.35;;;4.38;;
44670;SDS011;48397;53.016;-2.260;2023-05-23T02:41:55;19.27;;;4.75;;
44670;SDS011;48397;53.016;-2.260;2023-05-23T02:44:24;19.73;;;5.13;;
44670;SDS011;48397;53.016;-2.260;2023-05-23T02:46:52;19.35;;;4.80;;
44670;SDS011;48397;53.016;-2.260;2023-05-23T02:49:20;14.13;;;4.40;;
44670;SDS011;48397;53.016;-2.260;2023-05-23T02:51:50;18.05;;;4.88;;
44670;SDS011;48397;53.016;-2.260;2023-05-23T02:56:45;25.08;;;4.50;;
44670;SDS011;48397;53.016;-2.260;2023-05-23T02:59:13;25.23;;;4.70;;
44670;SDS011;48397;53.016;-2.260;2023-05-23T03:01:41;17.95;;;4.97;;
44670;SDS011;48397;53.016;-2.260;2023-05-23T03:04:09;14.38;;;4.15;;
44670;SDS011;48397;53.016;-2.260;2023-05-23T03:06:39;13.43;;;3.88;;
44670;SDS011;48397;53.016;-2.260;2023-05-23T03:09:08;19.95;;;4.50;;
44670;SDS011;48397;53.016;-2.260;2023-05-23T03:11:36;15.55;;;4.47;;
44670;SDS011;48397;53.016;-2.260;2023-05-23T03:14:04;17.67;;;4.22;;
44670;SDS011;48397;53.016;-2.260;2023-05-23T03:16:32;11.60;;;3.90;;
44670;SDS011;48397;53.016;-2.260;2023-05-23T03:18:59;11.43;;;4.07;;
44670;SDS011;48397;53.016;-2.260;2023-05-23T03:21:29;10.80;;;3.80;;
44670;SDS011;48397;53.016;-2.260;2023-05-23T03:23:58;13.25;;;3.80;;
44670;SDS011;48397;53.016;-2.260;2023-05-23T03:26:26;19.45;;;5.18;;
44670;SDS011;48397;53.016;-2.260;2023-05-23T03:28:54;17.33;;;4.30;;
44670;SDS011;48397;53.016;-2.260;2023-05-23T03:33:50;14.35;;;3.95;;
44670;SDS011;48397;53.016;-2.260;2023-05-23T03:36:22;19.58;;;5.05;;
44670;SDS011;48397;53.016;-2.260;2023-05-23T03:38:52;15.93;;;4.63;;
44670;SDS011;48397;53.016;-2.260;2023-05-23T03:41:19;20.58;;;4.50;;
44670;SDS011;48397;53.016;-2.260;2023-05-23T03:43:50;15.02;;;4.68;;
44670;SDS011;48397;53.016;-2.260;2023-05-23T03:48:46;16.30;;;4.95;;
44670;SDS011;48397;53.016;-2.260;2023-05-23T03:51:14;17.15;;;5.03;;
44670;SDS011;48397;53.016;-2.260;2023-05-23T03:53:44;20.48;;;5.28;;
44670;SDS011;48397;53.016;-2.260;2023-05-23T03:56:13;19.48;;;5.38;;
44670;SDS011;48397;53.016;-2.260;2023-05-23T03:58:43;19.40;;;5.20;;
44670;SDS011;48397;53.016;-2.260;2023-05-23T04:01:13;24.73;;;6.55;;
44670;SDS011;48397;53.016;-2.260;2023-05-23T04:03:41;14.98;;;5.45;;
44670;SDS011;48397;53.016;-2.260;2023-05-23T04:06:10;15.60;;;4.25;;
44670;SDS011;48397;53.016;-2.260;2023-05-23T04:08:42;14.07;;;4.85;;
44670;SDS011;48397;53.016;-2.260;2023-05-23T04:11:11;16.80;;;4.50;;
44670;SDS011;48397;53.016;-2.260;2023-05-23T04:13:40;19.23;;;4.68;;
44670;SDS011;48397;53.016;-2.260;2023-05-23T04:16:10;19.80;;;4.53;;
44670;SDS011;48397;53.016;-2.260;2023-05-23T04:21:09;18.50;;;5.25;;
44670;SDS011;48397;53.016;-2.260;2023-05-23T04:23:44;19.35;;;5.35;;
44670;SDS011;48397;53.016;-2.260;2023-05-23T04:26:13;20.60;;;5.82;;
44670;SDS011;48397;53.016;-2.260;2023-05-23T04:28:47;18.73;;;5.00;;
44670;SDS011;48397;53.016;-2.260;2023-05-23T04:31:15;19.85;;;4.53;;
44670;SDS011;48397;53.016;-2.260;2023-05-23T04:33:44;15.63;;;4.28;;
44670;SDS011;48397;53.016;-2.260;2023-05-23T04:36:12;24.10;;;4.90;;
44670;SDS011;48397;53.016;-2.260;2023-05-23T04:38:44;20.08;;;4.63;;
44670;SDS011;48397;53.016;-2.260;2023-05-23T04:41:13;19.10;;;4.97;;
44670;SDS011;48397;53.016;-2.260;2023-05-23T04:44:02;14.02;;;4.82;;
44670;SDS011;48397;53.016;-2.260;2023-05-23T04:46:47;17.27;;;4.30;;
44670;SDS011;48397;53.016;-2.260;2023-05-23T04:49:29;16.33;;;4.13;;
44670;SDS011;48397;53.016;-2.260;2023-05-23T04:52:01;21.33;;;4.55;;
44670;SDS011;48397;53.016;-2.260;2023-05-23T04:54:31;15.32;;;4.28;;
44670;SDS011;48397;53.016;-2.260;2023-05-23T04:57:04;18.08;;;5.00;;
44670;SDS011;48397;53.016;-2.260;2023-05-23T04:59:32;17.52;;;4.47;;
44670;SDS011;48397;53.016;-2.260;2023-05-23T05:02:01;22.23;;;4.80;;
44670;SDS011;48397;53.016;-2.260;2023-05-23T05:07:00;22.33;;;5.18;;
44670;SDS011;48397;53.016;-2.260;2023-05-23T05:09:30;16.73;;;5.30;;
44670;SDS011;48397;53.016;-2.260;2023-05-23T05:11:59;20.50;;;5.13;;
44670;SDS011;48397;53.016;-2.260;2023-05-23T05:14:28;17.85;;;4.95;;
44670;SDS011;48397;53.016;-2.260;2023-05-23T05:16:56;16.15;;;5.43;;
44670;SDS011;48397;53.016;-2.260;2023-05-23T05:19:30;15.30;;;4.13;;
44670;SDS011;48397;53.016;-2.260;2023-05-23T05:22:00;20.50;;;5.47;;
44670;SDS011;48397;53.016;-2.260;2023-05-23T05:24:29;20.30;;;5.10;;
44670;SDS011;48397;53.016;-2.260;2023-05-23T05:26:58;17.02;;;5.28;;
44670;SDS011;48397;53.016;-2.260;2023-05-23T05:29:27;19.42;;;4.38;;
44670;SDS011;48397;53.016;-2.260;2023-05-23T05:31:59;17.50;;;5.15;;
44670;SDS011;48397;53.016;-2.260;2023-05-23T05:34:27;17.48;;;4.43;;
44670;SDS011;48397;53.016;-2.260;2023-05-23T05:36:58;19.15;;;4.50;;
44670;SDS011;48397;53.016;-2.260;2023-05-23T05:39:27;13.10;;;4.45;;
44670;SDS011;48397;53.016;-2.260;2023-05-23T05:41:55;16.63;;;4.55;;
44670;SDS011;48397;53.016;-2.260;2023-05-23T05:44:24;19.27;;;4.85;;
44670;SDS011;48397;53.016;-2.260;2023-05-23T05:46:53;15.50;;;4.40;;
44670;SDS011;48397;53.016;-2.260;2023-05-23T05:49:22;15.85;;;4.28;;
44670;SDS011;48397;53.016;-2.260;2023-05-23T05:51:50;17.95;;;4.10;;
44670;SDS011;48397;53.016;-2.260;2023-05-23T05:54:18;15.60;;;4.13;;
44670;SDS011;48397;53.016;-2.260;2023-05-23T05:56:46;21.27;;;5.32;;
44670;SDS011;48397;53.016;-2.260;2023-05-23T05:59:14;22.10;;;4.85;;
44670;SDS011;48397;53.016;-2.260;2023-05-23T06:01:43;21.33;;;4.75;;
44670;SDS011;48397;53.016;-2.260;2023-05-23T06:04:11;19.05;;;4.57;;
44670;SDS011;48397;53.016;-2.260;2023-05-23T06:06:40;20.83;;;4.70;;
44670;SDS011;48397;53.016;-2.260;2023-05-23T06:09:09;22.10;;;4.10;;
44670;SDS011;48397;53.016;-2.260;2023-05-23T06:14:07;35.60;;;5.45;;
44670;SDS011;48397;53.016;-2.260;2023-05-23T06:16:39;33.40;;;6.22;;
44670;SDS011;48397;53.016;-2.260;2023-05-23T06:19:08;21.45;;;4.28;;
44670;SDS011;48397;53.016;-2.260;2023-05-23T06:21:37;32.63;;;5.57;;
44670;SDS011;48397;53.016;-2.260;2023-05-23T06:24:09;23.15;;;5.15;;
44670;SDS011;48397;53.016;-2.260;2023-05-23T06:26:38;28.38;;;5.00;;
44670;SDS011;48397;53.016;-2.260;2023-05-23T06:29:08;11.20;;;3.60;;
44670;SDS011;48397;53.016;-2.260;2023-05-23T06:31:36;14.77;;;4.45;;
44670;SDS011;48397;53.016;-2.260;2023-05-23T06:34:04;16.33;;;4.18;;
44670;SDS011;48397;53.016;-2.260;2023-05-23T06:36:32;15.32;;;4.07;;
44670;SDS011;48397;53.016;-2.260;2023-05-23T06:39:02;10.13;;;3.58;;
44670;SDS011;48397;53.016;-2.260;2023-05-23T06:41:32;15.27;;;3.72;;
44670;SDS011;48397;53.016;-2.260;2023-05-23T06:44:00;13.50;;;3.95;;
44670;SDS011;48397;53.016;-2.260;2023-05-23T06:46:30;18.52;;;3.65;;
44670;SDS011;48397;53.016;-2.260;2023-05-23T06:49:02;15.52;;;3.78;;
44670;SDS011;48397;53.016;-2.260;2023-05-23T06:51:42;11.00;;;3.72;;
44670;SDS011;48397;53.016;-2.260;2023-05-23T06:54:10;15.18;;;4.00;;
44670;SDS011;48397;53.016;-2.260;2023-05-23T06:56:39;16.52;;;3.88;;
44670;SDS011;48397;53.016;-2.260;2023-05-23T06:59:08;20.88;;;4.50;;
44670;SDS011;48397;53.016;-2.260;2023-05-23T07:01:36;19.52;;;4.50;;
44670;SDS011;48397;53.016;-2.260;2023-05-23T07:04:05;16.20;;;4.22;;
44670;SDS011;48397;53.016;-2.260;2023-05-23T07:06:34;15.45;;;4.53;;
44670;SDS011;48397;53.016;-2.260;2023-05-23T07:09:04;20.85;;;4.00;;
44670;SDS011;48397;53.016;-2.260;2023-05-23T07:11:33;18.80;;;4.85;;
44670;SDS011;48397;53.016;-2.260;2023-05-23T07:14:01;17.85;;;3.90;;
44670;SDS011;48397;53.016;-2.260;2023-05-23T07:16:44;16.73;;;3.90;;
44670;SDS011;48397;53.016;-2.260;2023-05-23T07:19:12;15.55;;;4.28;;
44670;SDS011;48397;53.016;-2.260;2023-05-23T07:21:45;20.08;;;4.25;;
44670;SDS011;48397;53.016;-2.260;2023-05-23T07:24:15;14.25;;;3.40;;
44670;SDS011;48397;53.016;-2.260;2023-05-23T07:26:43;18.98;;;4.28;;
44670;SDS011;48397;53.016;-2.260;2023-05-23T07:29:13;16.70;;;5.03;;
44670;SDS011;48397;53.016;-2.260;2023-05-23T07:31:43;15.82;;;3.92;;
44670;SDS011;48397;53.016;-2.260;2023-05-23T07:34:13;11.68;;;3.05;;
44670;SDS011;48397;53.016;-2.260;2023-05-23T07:36:50;19.40;;;4.53;;
44670;SDS011;48397;53.016;-2.260;2023-05-23T07:39:20;20.08;;;4.18;;
44670;SDS011;48397;53.016;-2.260;2023-05-23T07:41:51;16.85;;;4.53;;
44670;SDS011;48397;53.016;-2.260;2023-05-23T07:44:19;21.17;;;4.35;;
44670;SDS011;48397;53.016;-2.260;2023-05-23T07:46:51;19.88;;;4.90;;
44670;SDS011;48397;53.016;-2.260;2023-05-23T07:49:20;16.33;;;3.65;;
44670;SDS011;48397;53.016;-2.260;2023-05-23T07:51:49;16.85;;;3.67;;
44670;SDS011;48397;53.016;-2.260;2023-05-23T07:56:44;17.40;;;4.35;;
44670;SDS011;48397;53.016;-2.260;2023-05-23T07:59:14;12.93;;;4.65;;
44670;SDS011;48397;53.016;-2.260;2023-05-23T08:01:43;18.85;;;6.18;;
44670;SDS011;48397;53.016;-2.260;2023-05-23T08:04:17;13.48;;;4.45;;
44670;SDS011;48397;53.016;-2.260;2023-05-23T08:06:50;11.52;;;3.63;;
44670;SDS011;48397;53.016;-2.260;2023-05-23T08:09:46;17.17;;;5.82;;
44670;SDS011;48397;53.016;-2.260;2023-05-23T08:12:18;14.15;;;4.72;;
44670;SDS011;48397;53.016;-2.260;2023-05-23T08:14:50;14.95;;;5.00;;
44670;SDS011;48397;53.016;-2.260;2023-05-23T08:17:22;20.25;;;5.55;;
44670;SDS011;48397;53.016;-2.260;2023-05-23T08:19:51;20.65;;;6.57;;
44670;SDS011;48397;53.016;-2.260;2023-05-23T08:22:19;28.65;;;8.98;;
44670;SDS011;48397;53.016;-2.260;2023-05-23T08:24:47;18.58;;;6.95;;
44670;SDS011;48397;53.016;-2.260;2023-05-23T08:27:14;13.38;;;5.63;;
44670;SDS011;48397;53.016;-2.260;2023-05-23T08:29:46;19.30;;;5.80;;
44670;SDS011;48397;53.016;-2.260;2023-05-23T08:32:14;18.77;;;6.85;;
44670;SDS011;48397;53.016;-2.260;2023-05-23T08:34:43;24.58;;;7.80;;
44670;SDS011;48397;53.016;-2.260;2023-05-23T08:37:10;18.80;;;6.28;;
44670;SDS011;48397;53.016;-2.260;2023-05-23T08:39:39;18.55;;;6.93;;
44670;SDS011;48397;53.016;-2.260;2023-05-23T08:42:36;18.52;;;7.22;;
44670;SDS011;48397;53.016;-2.260;2023-05-23T08:45:06;22.85;;;7.53;;
44670;SDS011;48397;53.016;-2.260;2023-05-23T08:47:38;34.08;;;7.25;;
44670;SDS011;48397;53.016;-2.260;2023-05-23T08:50:11;20.85;;;7.70;;
44670;SDS011;48397;53.016;-2.260;2023-05-23T08:55:14;24.73;;;7.43;;
44670;SDS011;48397;53.016;-2.260;2023-05-23T08:57:44;20.55;;;6.95;;
44670;SDS011;48397;53.016;-2.260;2023-05-23T09:00:35;21.15;;;8.10;;
44670;SDS011;48397;53.016;-2.260;2023-05-23T09:03:03;23.13;;;9.02;;
44670;SDS011;48397;53.016;-2.260;2023-05-23T09:05:49;27.25;;;8.07;;
44670;SDS011;48397;53.016;-2.260;2023-05-23T09:08:19;26.67;;;8.82;;
44670;SDS011;48397;53.016;-2.260;2023-05-23T09:10:49;24.80;;;9.15;;
44670;SDS011;48397;53.016;-2.260;2023-05-23T09:13:20;23.73;;;9.27;;
44670;SDS011;48397;53.016;-2.260;2023-05-23T09:15:55;22.83;;;8.35;;
44670;SDS011;48397;53.016;-2.260;2023-05-23T09:18:37;17.58;;;5.95;;
44670;SDS011;48397;53.016;-2.260;2023-05-23T09:21:09;31.08;;;10.07;;
44670;SDS011;48397;53.016;-2.260;2023-05-23T09:23:47;21.30;;;7.45;;
44670;SDS011;48397;53.016;-2.260;2023-05-23T09:26:16;19.05;;;8.70;;
44670;SDS011;48397;53.016;-2.260;2023-05-23T09:31:13;23.23;;;9.65;;
44670;SDS011;48397;53.016;-2.260;2023-05-23T09:33:45;21.10;;;8.75;;
44670;SDS011;48397;53.016;-2.260;2023-05-23T09:36:16;21.35;;;9.00;;
44670;SDS011;48397;53.016;-2.260;2023-05-23T09:38:45;22.75;;;8.90;;
44670;SDS011;48397;53.016;-2.260;2023-05-23T09:41:15;19.58;;;8.20;;
44670;SDS011;48397;53.016;-2.260;2023-05-23T09:43:49;22.52;;;9.20;;
44670;SDS011;48397;53.016;-2.260;2023-05-23T09:46:19;22.20;;;10.05;;
44670;SDS011;48397;53.016;-2.260;2023-05-23T09:48:49;17.85;;;7.55;;
44670;SDS011;48397;53.016;-2.260;2023-05-23T09:51:19;15.25;;;5.28;;
44670;SDS011;48397;53.016;-2.260;2023-05-23T09:53:48;24.50;;;9.00;;
44670;SDS011;48397;53.016;-2.260;2023-05-23T09:56:17;28.90;;;10.57;;
44670;SDS011;48397;53.016;-2.260;2023-05-23T09:58:46;28.88;;;11.23;;
44670;SDS011;48397;53.016;-2.260;2023-05-23T10:01:16;26.80;;;11.75;;
44670;SDS011;48397;53.016;-2.260;2023-05-23T10:06:22;34.15;;;12.65;;
44670;SDS011;48397;53.016;-2.260;2023-05-23T10:08:56;26.52;;;11.80;;
44670;SDS011;48397;53.016;-2.260;2023-05-23T10:14:04;26.00;;;11.30;;
44670;SDS011;48397;53.016;-2.260;2023-05-23T10:19:49;28.08;;;10.32;;
44670;SDS011;48397;53.016;-2.260;2023-05-23T10:22:35;21.98;;;10.35;;
44670;SDS011;48397;53.016;-2.260;2023-05-23T10:25:04;23.73;;;12.27;;
44670;SDS011;48397;53.016;-2.260;2023-05-23T10:27:34;23.60;;;10.10;;
44670;SDS011;48397;53.016;-2.260;2023-05-23T10:30:06;25.98;;;10.00;;
44670;SDS011;48397;53.016;-2.260;2023-05-23T10:32:34;40.70;;;13.23;;
44670;SDS011;48397;53.016;-2.260;2023-05-23T10:38:24;25.42;;;9.98;;
44670;SDS011;48397;53.016;-2.260;2023-05-23T10:41:08;23.23;;;10.88;;
44670;SDS011;48397;53.016;-2.260;2023-05-23T10:43:48;27.23;;;11.60;;
44670;SDS011;48397;53.016;-2.260;2023-05-23T10:46:52;23.88;;;10.65;;
44670;SDS011;48397;53.016;-2.260;2023-05-23T10:49:43;25.70;;;11.48;;
44670;SDS011;48397;53.016;-2.260;2023-05-23T10:52:12;18.80;;;7.85;;
44670;SDS011;48397;53.016;-2.260;2023-05-23T10:54:43;23.42;;;8.52;;
44670;SDS011;48397;53.016;-2.260;2023-05-23T10:57:19;26.23;;;10.85;;
44670;SDS011;48397;53.016;-2.260;2023-05-23T10:59:49;21.70;;;7.82;;
44670;SDS011;48397;53.016;-2.260;2023-05-23T11:02:18;24.50;;;10.32;;
44670;SDS011;48397;53.016;-2.260;2023-05-23T11:08:06;26.77;;;7.53;;
44670;SDS011;48397;53.016;-2.260;2023-05-23T11:10:50;27.38;;;8.43;;
44670;SDS011;48397;53.016;-2.260;2023-05-23T11:16:29;27.38;;;9.32;;
44670;SDS011;48397;53.016;-2.260;2023-05-23T11:21:48;22.47;;;9.07;;
44670;SDS011;48397;53.016;-2.260;2023-05-23T11:24:20;23.23;;;9.85;;
44670;SDS011;48397;53.016;-2.260;2023-05-23T11:26:52;15.02;;;8.77;;
44670;SDS011;48397;53.016;-2.260;2023-05-23T11:29:21;21.45;;;8.18;;
44670;SDS011;48397;53.016;-2.260;2023-05-23T11:31:51;28.63;;;11.60;;
44670;SDS011;48397;53.016;-2.260;2023-05-23T11:34:19;27.98;;;9.23;;
44670;SDS011;48397;53.016;-2.260;2023-05-23T11:36:51;18.80;;;7.75;;
44670;SDS011;48397;53.016;-2.260;2023-05-23T11:39:22;37.25;;;10.48;;
44670;SDS011;48397;53.016;-2.260;2023-05-23T11:44:36;22.25;;;8.98;;
44670;SDS011;48397;53.016;-2.260;2023-05-23T11:47:05;23.65;;;8.32;;
44670;SDS011;48397;53.016;-2.260;2023-05-23T11:49:35;18.25;;;8.23;;
44670;SDS011;48397;53.016;-2.260;2023-05-23T11:52:06;18.55;;;9.10;;
44670;SDS011;48397;53.016;-2.260;2023-05-23T11:57:03;18.92;;;9.77;;
44670;SDS011;48397;53.016;-2.260;2023-05-23T11:59:31;17.42;;;8.23;;
44670;SDS011;48397;53.016;-2.260;2023-05-23T12:02:01;24.10;;;10.18;;
44670;SDS011;48397;53.016;-2.260;2023-05-23T12:04:29;18.50;;;8.88;;
44670;SDS011;48397;53.016;-2.260;2023-05-23T12:06:57;16.70;;;8.60;;
44670;SDS011;48397;53.016;-2.260;2023-05-23T12:09:26;20.65;;;8.57;;
44670;SDS011;48397;53.016;-2.260;2023-05-23T12:11:53;25.38;;;9.40;;
44670;SDS011;48397;53.016;-2.260;2023-05-23T12:16:50;28.30;;;10.52;;
44670;SDS011;48397;53.016;-2.260;2023-05-23T12:19:19;20.80;;;8.77;;
44670;SDS011;48397;53.016;-2.260;2023-05-23T12:21:48;20.88;;;8.43;;
44670;SDS011;48397;53.016;-2.260;2023-05-23T12:24:22;23.98;;;7.82;;
44670;SDS011;48397;53.016;-2.260;2023-05-23T12:26:56;18.05;;;9.27;;
44670;SDS011;48397;53.016;-2.260;2023-05-23T12:29:32;16.20;;;8.65;;
44670;SDS011;48397;53.016;-2.260;2023-05-23T12:32:02;15.57;;;8.93;;
44670;SDS011;48397;53.016;-2.260;2023-05-23T12:34:32;15.65;;;7.82;;
44670;SDS011;48397;53.016;-2.260;2023-05-23T12:37:00;21.85;;;9.70;;
44670;SDS011;48397;53.016;-2.260;2023-05-23T12:39:46;14.77;;;8.02;;
44670;SDS011;48397;53.016;-2.260;2023-05-23T12:42:15;16.75;;;8.07;;
44670;SDS011;48397;53.016;-2.260;2023-05-23T12:44:43;20.00;;;7.03;;
44670;SDS011;48397;53.016;-2.260;2023-05-23T12:47:12;19.15;;;8.38;;
44670;SDS011;48397;53.016;-2.260;2023-05-23T12:49:40;20.10;;;8.00;;
44670;SDS011;48397;53.016;-2.260;2023-05-23T12:52:10;14.52;;;7.18;;
44670;SDS011;48397;53.016;-2.260;2023-05-23T12:57:06;15.70;;;9.70;;
44670;SDS011;48397;53.016;-2.260;2023-05-23T12:59:34;15.88;;;7.22;;
44670;SDS011;48397;53.016;-2.260;2023-05-23T13:02:12;18.52;;;9.15;;
44670;SDS011;48397;53.016;-2.260;2023-05-23T13:04:39;24.58;;;9.60;;
44670;SDS011;48397;53.016;-2.260;2023-05-23T13:07:10;15.23;;;8.68;;
44670;SDS011;48397;53.016;-2.260;2023-05-23T13:12:06;21.40;;;9.60;;
44670;SDS011;48397;53.016;-2.260;2023-05-23T13:14:38;13.80;;;6.88;;
44670;SDS011;48397;53.016;-2.260;2023-05-23T13:17:13;15.98;;;7.57;;
44670;SDS011;48397;53.016;-2.260;2023-05-23T13:19:41;14.20;;;6.88;;
44670;SDS011;48397;53.016;-2.260;2023-05-23T13:22:09;13.02;;;6.40;;
44670;SDS011;48397;53.016;-2.260;2023-05-23T13:27:06;18.48;;;10.10;;
44670;SDS011;48397;53.016;-2.260;2023-05-23T13:29:34;14.68;;;7.97;;
44670;SDS011;48397;53.016;-2.260;2023-05-23T13:32:01;12.80;;;5.90;;
44670;SDS011;48397;53.016;-2.260;2023-05-23T13:34:29;9.18;;;4.72;;
44670;SDS011;48397;53.016;-2.260;2023-05-23T13:36:57;18.40;;;8.23;;
44670;SDS011;48397;53.016;-2.260;2023-05-23T13:41:54;12.80;;;6.53;;
44670;SDS011;48397;53.016;-2.260;2023-05-23T13:44:23;13.30;;;5.82;;
44670;SDS011;48397;53.016;-2.260;2023-05-23T13:46:51;13.43;;;6.40;;
44670;SDS011;48397;53.016;-2.260;2023-05-23T13:51:49;14.23;;;6.95;;
44670;SDS011;48397;53.016;-2.260;2023-05-23T13:54:17;32.38;;;7.82;;
44670;SDS011;48397;53.016;-2.260;2023-05-23T13:59:13;9.73;;;5.57;;
44670;SDS011;48397;53.016;-2.260;2023-05-23T14:01:48;10.80;;;5.10;;
44670;SDS011;48397;53.016;-2.260;2023-05-23T14:04:16;12.43;;;7.13;;
44670;SDS011;48397;53.016;-2.260;2023-05-23T14:06:44;13.45;;;6.00;;
44670;SDS011;48397;53.016;-2.260;2023-05-23T14:09:12;16.35;;;6.13;;
44670;SDS011;48397;53.016;-2.260;2023-05-23T14:11:40;12.38;;;6.15;;
44670;SDS011;48397;53.016;-2.260;2023-05-23T14:14:08;13.57;;;5.88;;
44670;SDS011;48397;53.016;-2.260;2023-05-23T14:19:20;14.32;;;5.40;;
44670;SDS011;48397;53.016;-2.260;2023-05-23T14:21:48;11.40;;;3.22;;
44670;SDS011;48397;53.016;-2.260;2023-05-23T14:24:16;14.65;;;5.35;;
44670;SDS011;48397;53.016;-2.260;2023-05-23T14:29:12;12.00;;;3.58;;
44670;SDS011;48397;53.016;-2.260;2023-05-23T14:31:41;10.45;;;4.63;;
44670;SDS011;48397;53.016;-2.260;2023-05-23T14:34:08;19.67;;;5.72;;
44670;SDS011;48397;53.016;-2.260;2023-05-23T14:36:37;13.43;;;5.20;;
44670;SDS011;48397;53.016;-2.260;2023-05-23T14:41:40;13.30;;;4.47;;
44670;SDS011;48397;53.016;-2.260;2023-05-23T14:44:11;13.82;;;4.00;;
44670;SDS011;48397;53.016;-2.260;2023-05-23T14:46:41;15.10;;;5.35;;
44670;SDS011;48397;53.016;-2.260;2023-05-23T14:49:15;11.05;;;4.00;;
44670;SDS011;48397;53.016;-2.260;2023-05-23T14:51:44;15.10;;;4.97;;
44670;SDS011;48397;53.016;-2.260;2023-05-23T14:54:18;44.67;;;6.85;;
44670;SDS011;48397;53.016;-2.260;2023-05-23T14:56:52;10.77;;;3.88;;
44670;SDS011;48397;53.016;-2.260;2023-05-23T14:59:21;11.38;;;5.00;;
44670;SDS011;48397;53.016;-2.260;2023-05-23T15:01:53;7.18;;;3.20;;
44670;SDS011;48397;53.016;-2.260;2023-05-23T15:04:22;12.05;;;2.60;;
44670;SDS011;48397;53.016;-2.260;2023-05-23T15:06:59;10.88;;;3.78;;
44670;SDS011;48397;53.016;-2.260;2023-05-23T15:11:57;9.98;;;2.80;;
44670;SDS011;48397;53.016;-2.260;2023-05-23T15:14:26;10.18;;;2.97;;
44670;SDS011;48397;53.016;-2.260;2023-05-23T15:17:06;8.25;;;2.45;;
44670;SDS011;48397;53.016;-2.260;2023-05-23T15:19:34;10.75;;;2.78;;
44670;SDS011;48397;53.016;-2.260;2023-05-23T15:22:03;11.32;;;2.72;;
44670;SDS011;48397;53.016;-2.260;2023-05-23T15:24:31;10.20;;;2.67;;
44670;SDS011;48397;53.016;-2.260;2023-05-23T15:27:01;6.50;;;1.88;;
44670;SDS011;48397;53.016;-2.260;2023-05-23T15:29:47;8.25;;;2.47;;
44670;SDS011;48397;53.016;-2.260;2023-05-23T15:32:22;5.90;;;1.90;;
44670;SDS011;48397;53.016;-2.260;2023-05-23T15:34:55;6.75;;;2.28;;
44670;SDS011;48397;53.016;-2.260;2023-05-23T15:37:28;7.95;;;2.30;;
44670;SDS011;48397;53.016;-2.260;2023-05-23T15:39:56;11.30;;;3.28;;
44670;SDS011;48397;53.016;-2.260;2023-05-23T15:42:29;12.40;;;3.28;;
44670;SDS011;48397;53.016;-2.260;2023-05-23T15:45:01;6.13;;;2.60;;
44670;SDS011;48397;53.016;-2.260;2023-05-23T15:47:31;8.18;;;2.60;;
44670;SDS011;48397;53.016;-2.260;2023-05-23T15:50:00;7.00;;;2.22;;
44670;SDS011;48397;53.016;-2.260;2023-05-23T15:52:28;11.27;;;2.55;;
44670;SDS011;48397;53.016;-2.260;2023-05-23T15:54:55;7.63;;;2.45;;
44670;SDS011;48397;53.016;-2.260;2023-05-23T15:57:23;7.88;;;2.75;;
44670;SDS011;48397;53.016;-2.260;2023-05-23T16:02:19;12.45;;;3.03;;
44670;SDS011;48397;53.016;-2.260;2023-05-23T16:07:16;8.73;;;2.50;;
44670;SDS011;48397;53.016;-2.260;2023-05-23T16:09:44;7.32;;;2.03;;
44670;SDS011;48397;53.016;-2.260;2023-05-23T16:17:08;7.97;;;2.05;;
44670;SDS011;48397;53.016;-2.260;2023-05-23T16:19:36;4.85;;;2.13;;
44670;SDS011;48397;53.016;-2.260;2023-05-23T16:22:04;7.28;;;2.33;;
44670;SDS011;48397;53.016;-2.260;2023-05-23T16:24:34;6.65;;;1.73;;